Time;durP1;ratioP1;P1;durP2;ratioP2;P2;SDS_P1;SDS_P2;PMS_P1;PMS_P2;Temp;Humidity;BMP_temperature;BMP_pressure;BME280_temperature;BME280_humidity;BME280_pressure;Samples;Min_cycle;Max_cycle;Signal;HPM_P1;HPM_P2
2022/04/20 00:01:37;;;;;;;21.55;12.15;;;;;;;5.52;58.06;94314.22;4176039;28;20060;-58
2022/04/20 00:03:39;;;;;;;24.00;13.15;;;;;;;5.51;58.36;94310.00;4176384;28;20053;-57
2022/04/20 00:05:40;;;;;;;20.27;13.02;;;;;;;5.45;58.77;94313.94;4165182;28;20080;-53
2022/04/20 00:07:42;;;;;;;26.80;14.55;;;;;;;5.43;58.48;94315.06;4159118;28;20115;-54
2022/04/20 00:09:44;;;;;;;24.35;14.10;;;;;;;5.44;58.88;94303.69;4158841;28;20057;-56
2022/04/20 00:11:46;;;;;;;26.90;13.80;;;;;;;5.42;58.78;94308.19;4159591;28;20049;-56
2022/04/20 00:13:48;;;;;;;25.77;13.95;;;;;;;5.45;59.02;94306.16;4159140;28;20103;-57
2022/04/20 00:15:50;;;;;;;22.60;13.88;;;;;;;5.52;58.70;94309.03;4159437;28;20050;-57
2022/04/20 00:17:51;;;;;;;23.10;14.57;;;;;;;5.60;58.50;94303.97;4159401;28;20060;-56
2022/04/20 00:19:54;;;;;;;21.35;13.80;;;;;;;5.60;58.22;94309.16;4158492;28;20057;-58
2022/04/20 00:21:55;;;;;;;25.40;13.75;;;;;;;5.64;58.08;94317.50;4159263;28;20218;-56
2022/04/20 00:23:57;;;;;;;22.13;13.63;;;;;;;5.60;58.09;94314.34;4158026;28;20490;-55
2022/04/20 00:25:59;;;;;;;26.23;13.15;;;;;;;5.62;57.89;94315.03;4160590;28;20076;-55
2022/04/20 00:28:01;;;;;;;22.17;13.15;;;;;;;5.63;57.76;94315.84;4144103;28;20108;-58
2022/04/20 00:30:04;;;;;;;21.05;13.30;;;;;;;5.64;58.06;94313.13;4156037;28;20049;-56
2022/04/20 00:32:06;;;;;;;23.30;13.13;;;;;;;5.58;58.83;94311.06;4158976;28;20072;-58
2022/04/20 00:34:08;;;;;;;21.70;13.73;;;;;;;5.61;58.98;94300.41;4159380;28;20045;-57
2022/04/20 00:36:10;;;;;;;22.48;13.40;;;;;;;5.64;58.32;94301.91;4173789;28;20071;-56
2022/04/20 00:38:11;;;;;;;24.65;13.80;;;;;;;5.65;58.42;94303.53;4164559;28;20685;-55
2022/04/20 00:40:15;;;;;;;20.70;13.82;;;;;;;5.63;57.91;94301.06;4166123;28;20083;-56
2022/04/20 00:42:16;;;;;;;18.42;13.68;;;;;;;5.67;58.42;94305.03;4171308;28;20163;-56
2022/04/20 00:44:19;;;;;;;20.45;12.93;;;;;;;5.68;58.18;94300.69;4161047;28;20053;-55
2022/04/20 00:46:24;;;;;;;21.48;12.77;;;;;;;5.66;58.20;94302.59;4162902;28;20107;-57
2022/04/20 00:48:27;;;;;;;21.33;13.05;;;;;;;5.59;58.50;94299.72;4162410;28;20164;-56
2022/04/20 00:50:29;;;;;;;21.60;12.38;;;;;;;5.59;59.18;94309.28;4162506;28;20060;-55
2022/04/20 00:52:31;;;;;;;23.30;12.43;;;;;;;5.56;58.50;94309.59;4161934;28;20088;-58
2022/04/20 00:54:52;;;;;;;24.25;13.15;;;;;;;5.55;59.12;94303.56;4162771;28;20065;-57
2022/04/20 00:56:54;;;;;;;22.15;13.63;;;;;;;5.52;59.20;94306.44;4162190;28;20049;-57
2022/04/20 00:58:57;;;;;;;18.73;13.38;;;;;;;5.49;58.99;94299.72;4174834;28;20060;-56
2022/04/20 01:00:59;;;;;;;27.13;13.38;;;;;;;5.46;58.79;94300.03;4165660;28;20057;-57
2022/04/20 01:03:01;;;;;;;27.27;14.73;;;;;;;5.36;59.66;94311.38;4175101;28;20496;-57
2022/04/20 01:05:03;;;;;;;19.65;13.23;;;;;;;5.26;59.64;94309.56;4178936;28;20064;-56
2022/04/20 01:07:12;;;;;;;20.90;12.70;;;;;;;5.24;59.26;94303.69;4178715;28;20048;-55
2022/04/20 01:09:14;;;;;;;20.92;13.10;;;;;;;5.19;60.11;94303.28;4177385;28;20049;-57
2022/04/20 01:11:15;;;;;;;19.45;12.30;;;;;;;5.24;59.44;94305.47;4178827;28;20122;-56
2022/04/20 01:13:17;;;;;;;21.98;13.23;;;;;;;5.23;59.98;94301.25;4178701;28;20061;-56
2022/04/20 01:15:19;;;;;;;20.58;13.18;;;;;;;5.29;59.66;94301.53;4170990;28;20283;-56
2022/04/20 01:17:20;;;;;;;22.98;13.32;;;;;;;5.34;59.28;94295.91;4162356;28;20126;-56
2022/04/20 01:19:22;;;;;;;24.08;12.90;;;;;;;5.38;59.40;94296.44;4161762;28;20479;-56
2022/04/20 01:21:25;;;;;;;21.85;13.00;;;;;;;5.37;59.48;94295.63;4170201;28;20045;-57
2022/04/20 01:23:27;;;;;;;19.98;13.20;;;;;;;5.31;59.69;94291.81;4176794;28;20127;-54
2022/04/20 01:25:29;;;;;;;21.42;12.40;;;;;;;5.33;59.39;94297.69;4176149;28;20130;-55
2022/04/20 01:27:30;;;;;;;17.08;11.68;;;;;;;5.34;59.63;94296.72;4163403;28;20049;-55
2022/04/20 01:29:32;;;;;;;20.40;12.10;;;;;;;5.33;59.37;94310.69;4177147;28;20060;-56
2022/04/20 01:31:46;;;;;;;18.30;12.05;;;;;;;5.31;59.56;94302.22;4161715;28;20111;-53
2022/04/20 01:33:48;;;;;;;22.23;12.35;;;;;;;5.26;59.87;94306.16;4162288;28;20217;-55
2022/04/20 01:35:50;;;;;;;18.33;12.35;;;;;;;5.12;60.33;94304.81;4178548;28;20059;-55
2022/04/20 01:37:52;;;;;;;19.17;12.80;;;;;;;5.07;60.61;94305.19;4176899;28;20401;-56
2022/04/20 01:39:54;;;;;;;19.67;13.27;;;;;;;5.18;61.02;94306.84;4177992;28;20071;-56
2022/04/20 01:41:56;;;;;;;22.48;11.10;;;;;;;5.13;60.36;94302.03;4178112;28;20114;-54
2022/04/20 01:43:58;;;;;;;19.50;11.75;;;;;;;5.02;60.78;94307.38;4161209;28;20103;-58
2022/04/20 01:46:00;;;;;;;19.00;11.70;;;;;;;5.03;61.65;94313.38;4161209;28;20115;-56
2022/04/20 01:48:01;;;;;;;17.88;11.55;;;;;;;5.10;61.54;94310.13;4161080;28;20695;-56
2022/04/20 01:50:05;;;;;;;16.42;10.80;;;;;;;5.18;61.13;94306.84;4166741;28;20056;-57
2022/04/20 01:52:07;;;;;;;18.60;11.27;;;;;;;5.23;60.87;94307.25;4164052;28;20080;-57
2022/04/20 01:54:09;;;;;;;16.60;11.30;;;;;;;5.04;61.08;94312.44;4160010;28;20053;-56
2022/04/20 01:56:10;;;;;;;17.95;11.60;;;;;;;4.28;62.47;94316.34;4161079;28;20103;-56
2022/04/20 01:58:12;;;;;;;17.33;11.55;;;;;;;3.49;66.49;94316.84;4168840;28;20322;-54
2022/04/20 02:00:16;;;;;;;21.10;12.23;;;;;;;3.46;66.95;94313.66;4160520;28;20073;-57
2022/04/20 02:02:35;;;;;;;;;;;;;;;3.42;67.17;94323.47;4160882;28;20053;-55
2022/04/20 02:04:37;;;;;;;19.13;11.90;;;;;;;3.61;67.04;94314.19;4160527;28;19944;-55
2022/04/20 02:06:39;;;;;;;22.58;12.05;;;;;;;3.75;66.89;94328.59;4159650;28;20045;-55
2022/04/20 02:08:41;;;;;;;16.00;10.23;;;;;;;3.87;66.91;94327.56;4158935;28;20107;-56
2022/04/20 02:10:43;;;;;;;12.73;8.48;;;;;;;3.83;68.41;94326.19;4168307;28;20420;-56
2022/04/20 02:12:44;;;;;;;13.68;9.27;;;;;;;3.89;69.06;94323.94;4160142;28;20111;-54
2022/04/20 02:14:47;;;;;;;16.60;10.43;;;;;;;4.07;68.56;94321.56;4160291;28;20076;-57
2022/04/20 02:16:48;;;;;;;13.38;8.77;;;;;;;4.25;67.46;94320.94;4160419;28;20045;-57
2022/04/20 02:18:50;;;;;;;15.43;9.32;;;;;;;4.41;67.45;94317.84;4160202;28;20074;-55
2022/04/20 02:20:52;;;;;;;15.40;10.15;;;;;;;4.55;66.65;94314.09;4160338;28;20064;-57
2022/04/20 02:22:54;;;;;;;15.15;9.48;;;;;;;4.62;66.47;94310.03;4158772;28;20054;-56
2022/04/20 02:24:56;;;;;;;14.05;9.50;;;;;;;4.71;66.47;94311.81;4160354;28;20536;-54
2022/04/20 02:26:58;;;;;;;14.63;9.73;;;;;;;4.73;66.35;94309.91;4164448;28;20041;-57
2022/04/20 02:29:00;;;;;;;15.02;9.88;;;;;;;4.83;65.31;94313.34;4159039;28;20057;-58
2022/04/20 02:31:01;;;;;;;12.15;9.00;;;;;;;4.87;65.45;94301.75;4160017;28;20053;-54
2022/04/20 02:33:03;;;;;;;14.75;9.88;;;;;;;4.89;65.77;94305.03;4159901;28;20195;-54
2022/04/20 02:35:05;;;;;;;13.85;9.10;;;;;;;4.90;65.57;94298.91;4159890;28;20061;-54
2022/04/20 02:37:07;;;;;;;12.30;8.77;;;;;;;4.90;65.36;94296.31;4160012;28;20046;-55
2022/04/20 02:39:09;;;;;;;12.20;8.35;;;;;;;4.90;64.87;94298.06;4158872;28;20096;-55
2022/04/20 02:41:10;;;;;;;14.52;9.00;;;;;;;4.82;65.43;94298.75;4159946;28;20061;-55
2022/04/20 02:43:12;;;;;;;11.93;7.93;;;;;;;4.68;66.11;94302.53;4159881;28;20053;-54
2022/04/20 02:45:16;;;;;;;12.43;8.65;;;;;;;4.68;66.27;94304.31;4159812;28;20057;-53
2022/04/20 02:47:17;;;;;;;12.10;8.98;;;;;;;4.62;65.96;94302.25;4158259;28;20050;-55
2022/04/20 02:49:21;;;;;;;12.52;8.20;;;;;;;4.43;66.06;94296.06;4159562;28;20116;-60
2022/04/20 02:51:22;;;;;;;12.25;8.88;;;;;;;4.43;66.99;94301.25;4175923;28;20111;-59
2022/04/20 02:53:24;;;;;;;13.10;8.55;;;;;;;4.47;66.15;94300.03;4158427;28;20049;-58
2022/04/20 02:55:26;;;;;;;13.32;9.02;;;;;;;4.57;66.53;94301.81;4159798;28;20053;-56
2022/04/20 02:57:28;;;;;;;16.23;9.27;;;;;;;4.19;66.54;94318.88;4150460;28;20124;-56
2022/04/20 02:59:30;;;;;;;13.45;9.63;;;;;;;3.96;67.59;94313.03;4160951;28;20056;-56
2022/04/20 03:01:32;;;;;;;12.23;8.57;;;;;;;3.82;68.09;94314.19;4175966;28;21066;-57
2022/04/20 03:03:34;;;;;;;14.32;10.30;;;;;;;3.77;68.18;94313.75;4166344;28;20056;-57
2022/04/20 03:05:35;;;;;;;15.95;8.98;;;;;;;3.80;68.61;94319.47;4159612;28;20061;-56
2022/04/20 03:07:37;;;;;;;14.70;9.52;;;;;;;3.70;68.10;94313.44;4158267;28;20053;-53
2022/04/20 03:09:39;;;;;;;16.73;11.25;;;;;;;3.65;68.55;94316.38;4168637;28;20060;-55
2022/04/20 03:11:41;;;;;;;18.80;10.57;;;;;;;3.65;68.59;94316.38;4176059;28;20745;-56
2022/04/20 03:13:44;;;;;;;17.58;10.00;;;;;;;3.63;68.81;94318.28;4162327;28;20057;-54
2022/04/20 03:15:47;;;;;;;18.05;11.27;;;;;;;3.76;68.43;94320.69;4175943;28;20421;-54
2022/04/20 03:17:49;;;;;;;15.35;10.15;;;;;;;3.90;68.03;94322.97;4174012;28;20107;-53
2022/04/20 03:19:51;;;;;;;19.40;10.18;;;;;;;3.92;67.86;94322.84;4175732;28;20091;-58
2022/04/20 03:21:53;;;;;;;17.10;10.90;;;;;;;3.96;67.57;94313.88;4148006;28;20572;-56
2022/04/20 03:23:54;;;;;;;16.17;10.48;;;;;;;3.83;67.97;94318.41;4141807;28;20046;-56
2022/04/20 03:25:56;;;;;;;17.63;10.43;;;;;;;3.89;68.46;94329.09;4151621;28;20126;-54
2022/04/20 03:27:58;;;;;;;14.88;10.52;;;;;;;3.95;67.99;94317.38;4171862;28;20053;-56
2022/04/20 03:29:59;;;;;;;16.48;10.10;;;;;;;4.00;68.15;94304.03;4155257;28;20054;-51
2022/04/20 03:32:08;;;;;;;15.70;10.30;;;;;;;4.02;67.60;94310.75;4163868;28;20076;-53
2022/04/20 03:34:10;;;;;;;15.27;9.63;;;;;;;4.13;67.86;94306.41;4175290;28;20143;-50
2022/04/20 03:36:12;;;;;;;14.52;10.38;;;;;;;4.18;67.37;94301.69;4159344;28;20556;-53
2022/04/20 03:38:14;;;;;;;13.07;10.27;;;;;;;4.25;67.74;94295.03;4164335;28;20126;-52
2022/04/20 03:40:15;;;;;;;15.68;10.00;;;;;;;4.36;66.94;94294.91;4175637;28;20049;-54
2022/04/20 03:42:18;;;;;;;14.35;9.55;;;;;;;4.42;66.38;94299.59;4158797;28;20107;-57
2022/04/20 03:44:19;;;;;;;14.70;10.23;;;;;;;4.46;66.73;94298.38;4158603;28;20681;-55
2022/04/20 03:46:22;;;;;;;16.63;10.60;;;;;;;4.50;66.54;94297.16;4157381;28;20651;-52
2022/04/20 03:48:24;;;;;;;13.68;9.70;;;;;;;4.33;66.11;94292.59;4164253;28;20045;-55
2022/04/20 03:50:26;;;;;;;13.98;9.60;;;;;;;4.34;67.03;94296.81;4175657;28;20057;-55
2022/04/20 03:52:27;;;;;;;14.70;9.43;;;;;;;4.35;66.52;94302.84;4175545;28;20052;-57
2022/04/20 03:54:29;;;;;;;13.50;10.05;;;;;;;4.23;66.91;94304.69;4165045;28;20058;-57
2022/04/20 03:57:03;;;;;;;14.27;9.32;;;;;;;3.94;67.57;94300.22;4159043;28;20057;-56
2022/04/20 03:58:53;;;;;;;13.57;8.95;;;;;;;3.86;68.65;94306.03;4159058;28;20144;-54
2022/04/20 04:00:55;;;;;;;13.93;10.55;;;;;;;3.97;69.05;94309.50;4170919;28;20174;-57
2022/04/20 04:02:57;;;;;;;15.48;10.30;;;;;;;4.10;67.98;94297.94;4173672;28;20056;-55
2022/04/20 04:04:58;;;;;;;15.43;9.93;;;;;;;4.22;67.05;94300.47;4175143;28;20568;-55
2022/04/20 04:07:00;;;;;;;19.40;10.70;;;;;;;4.30;67.11;94305.81;4175009;28;20687;-53
2022/04/20 04:09:02;;;;;;;15.50;11.32;;;;;;;4.39;66.48;94293.81;4160252;28;20433;-55
2022/04/20 04:11:04;;;;;;;14.75;9.93;;;;;;;4.42;66.82;94293.59;4158822;28;20049;-57
2022/04/20 04:13:05;;;;;;;16.17;10.25;;;;;;;4.47;65.93;94301.78;4158651;28;20445;-56
2022/04/20 04:15:07;;;;;;;16.90;10.00;;;;;;;4.52;65.66;94291.84;4158558;28;20060;-56
2022/04/20 04:17:09;;;;;;;19.58;10.82;;;;;;;4.55;65.94;94277.78;4158741;28;20057;-56
2022/04/20 04:19:11;;;;;;;15.40;10.60;;;;;;;4.58;65.98;94287.88;4161343;28;20115;-56
2022/04/20 04:21:13;;;;;;;16.90;10.48;;;;;;;4.63;65.85;94276.16;4162124;28;20076;-55
2022/04/20 04:23:16;;;;;;;15.50;10.68;;;;;;;4.66;66.05;94275.06;4160897;28;20050;-57
2022/04/20 04:25:18;;;;;;;16.48;9.57;;;;;;;4.71;65.95;94278.06;4167951;28;20052;-55
2022/04/20 04:27:20;;;;;;;15.02;10.32;;;;;;;4.66;65.95;94277.66;4178839;28;20045;-57
2022/04/20 04:29:22;;;;;;;15.52;10.52;;;;;;;4.74;65.51;94282.19;4168260;28;20452;-57
2022/04/20 04:31:24;;;;;;;13.05;9.98;;;;;;;4.87;64.64;94267.19;4157326;28;20714;-57
2022/04/20 04:33:26;;;;;;;15.75;10.43;;;;;;;4.75;64.36;94261.28;4169638;28;20312;-53
2022/04/20 04:35:28;;;;;;;13.98;9.93;;;;;;;4.34;65.76;94272.66;4178273;28;20060;-55
2022/04/20 04:37:30;;;;;;;15.77;10.35;;;;;;;4.34;66.40;94275.25;4170800;28;20114;-56
2022/04/20 04:39:31;;;;;;;16.42;11.05;;;;;;;4.44;66.25;94268.34;4177223;28;20060;-56
2022/04/20 04:41:33;;;;;;;15.55;10.45;;;;;;;4.32;66.79;94275.38;4167769;28;20109;-58
2022/04/20 04:43:35;;;;;;;15.65;10.40;;;;;;;4.22;66.63;94279.75;4162944;28;20311;-57
2022/04/20 04:50:17;;;;;;;14.90;9.60;;;;;;;4.27;66.66;94286.16;4161757;28;20057;-55
2022/04/20 04:52:19;;;;;;;14.18;10.15;;;;;;;4.34;66.71;94299.41;4161533;28;20095;-59
2022/04/20 04:54:21;;;;;;;17.90;11.23;;;;;;;4.47;66.09;94294.84;4160587;28;20119;-56
2022/04/20 04:56:23;;;;;;;13.95;10.20;;;;;;;4.51;66.04;94288.41;4146731;28;20379;-58
2022/04/20 04:58:24;;;;;;;17.33;10.50;;;;;;;4.60;65.55;94280.78;4161433;28;20049;-58
2022/04/20 05:00:26;;;;;;;17.92;10.80;;;;;;;4.69;66.04;94278.22;4169416;28;20049;-56
2022/04/20 05:02:28;;;;;;;16.75;10.80;;;;;;;4.82;65.65;94288.38;4145769;28;20120;-59
2022/04/20 05:04:30;;;;;;;13.90;10.55;;;;;;;4.66;65.36;94293.25;4161459;28;20076;-58
2022/04/20 05:06:32;;;;;;;15.23;9.73;;;;;;;4.47;65.74;94299.19;4161933;28;20050;-62
2022/04/20 05:08:33;;;;;;;15.07;9.63;;;;;;;4.39;66.46;94299.84;4160417;28;20049;-56
2022/04/20 05:10:36;;;;;;;16.45;10.95;;;;;;;4.44;66.79;94294.28;4161443;28;20109;-55
2022/04/20 05:12:38;;;;;;;13.98;10.85;;;;;;;4.51;66.36;94308.34;4161467;28;20061;-57
2022/04/20 05:14:40;;;;;;;19.48;10.93;;;;;;;4.21;66.38;94311.78;4161193;28;20498;-55
2022/04/20 05:16:42;;;;;;;23.52;14.38;;;;;;;3.81;67.86;94321.16;4161306;28;20135;-55
2022/04/20 05:18:43;;;;;;;28.35;15.98;;;;;;;3.55;68.96;94319.84;4161185;28;20046;-57
2022/04/20 05:20:45;;;;;;;28.63;16.33;;;;;;;3.32;70.21;94321.75;4161443;28;20053;-57
2022/04/20 05:22:48;;;;;;;26.20;15.73;;;;;;;3.46;70.55;94324.03;4160228;28;20107;-55
2022/04/20 05:24:49;;;;;;;23.60;14.95;;;;;;;3.48;69.58;94329.91;4169520;28;20065;-54
2022/04/20 05:26:52;;;;;;;31.30;15.98;;;;;;;3.49;69.98;94336.75;4160773;28;20060;-54
2022/04/20 05:28:53;;;;;;;29.77;17.88;;;;;;;3.63;69.58;94333.00;4161234;28;20053;-56
2022/04/20 05:30:55;;;;;;;24.95;16.83;;;;;;;3.86;68.96;94331.94;4158906;28;20053;-56
2022/04/20 05:32:57;;;;;;;27.85;17.33;;;;;;;4.05;68.20;94331.22;4160380;28;20506;-57
2022/04/20 05:34:58;;;;;;;28.15;16.10;;;;;;;4.20;67.18;94330.91;4173672;28;20471;-52
2022/04/20 05:41:41;;;;;;;22.38;13.32;;;;;;;4.42;66.36;94329.91;4165073;28;20137;-54
2022/04/20 05:43:42;;;;;;;17.83;13.32;;;;;;;4.29;66.46;94324.94;4174877;28;20105;-54
2022/04/20 05:45:44;;;;;;;21.48;14.48;;;;;;;3.63;68.61;94328.63;4160951;28;20111;-58
2022/04/20 05:47:46;;;;;;;24.92;14.80;;;;;;;3.44;70.04;94336.28;4153258;28;20127;-53
2022/04/20 05:49:48;;;;;;;22.25;14.68;;;;;;;3.45;70.81;94338.75;4147624;28;20057;-55
2022/04/20 05:51:50;;;;;;;26.52;16.35;;;;;;;3.28;70.39;94342.69;4160378;28;20041;-57
2022/04/20 05:53:51;;;;;;;23.58;13.77;;;;;;;3.23;71.36;94342.25;4157845;28;20053;-58
2022/04/20 05:55:53;;;;;;;19.85;13.82;;;;;;;2.95;71.54;94354.00;4160288;28;20588;-52
2022/04/20 05:57:55;;;;;;;19.80;13.07;;;;;;;2.55;73.50;94353.69;4160180;28;20342;-49
2022/04/20 05:59:56;;;;;;;19.83;13.52;;;;;;;2.42;74.16;94349.47;4159904;28;20049;-49
2022/04/20 06:01:58;;;;;;;19.77;14.23;;;;;;;2.79;74.65;94358.72;4160054;28;20312;-49
2022/04/20 06:04:00;;;;;;;22.83;15.07;;;;;;;3.15;73.38;94346.41;4160082;28;20513;-50
2022/04/20 06:06:03;;;;;;;21.83;15.23;;;;;;;3.46;71.63;94350.75;4160021;28;20054;-52
2022/04/20 06:08:05;;;;;;;22.63;15.25;;;;;;;3.79;70.86;94358.50;4158694;28;20084;-47
2022/04/20 06:10:08;;;;;;;27.10;16.70;;;;;;;3.66;70.48;94353.50;4160439;28;20053;-50
2022/04/20 06:12:10;;;;;;;23.55;15.45;;;;;;;3.54;71.17;94347.53;4160446;28;20053;-50
2022/04/20 06:14:11;;;;;;;23.88;15.45;;;;;;;3.75;71.49;94344.16;4160112;28;20064;-49
2022/04/20 06:16:13;;;;;;;26.08;15.50;;;;;;;3.85;70.11;94339.81;4160170;28;20053;-51
2022/04/20 06:18:15;;;;;;;22.30;13.98;;;;;;;3.77;70.88;94342.25;4160254;28;20049;-52
2022/04/20 06:20:17;;;;;;;28.23;15.93;;;;;;;3.95;70.75;94351.06;4160450;28;20045;-48
2022/04/20 06:22:18;;;;;;;34.47;15.73;;;;;;;4.07;70.99;94347.47;4160437;28;20191;-48
2022/04/20 06:24:20;;;;;;;27.25;16.60;;;;;;;4.25;69.92;94345.09;4159158;28;20050;-49
2022/04/20 06:26:22;;;;;;;30.13;15.43;;;;;;;4.43;69.40;94339.31;4160330;28;20049;-51
2022/04/20 06:28:25;;;;;;;26.52;16.17;;;;;;;4.60;69.07;94335.28;4160138;28;20057;-52
2022/04/20 06:30:26;;;;;;;25.90;16.03;;;;;;;4.77;69.33;94329.44;4166757;28;20065;-51
2022/04/20 06:32:28;;;;;;;24.20;14.93;;;;;;;4.86;69.11;94323.47;4155857;28;20068;-50
2022/04/20 06:34:30;;;;;;;22.73;16.05;;;;;;;4.93;68.26;94319.38;4159638;28;20057;-49
2022/04/20 06:36:32;;;;;;;24.38;15.13;;;;;;;5.03;67.82;94323.75;4160283;28;20069;-51
2022/04/20 06:38:33;;;;;;;23.38;16.02;;;;;;;5.07;68.13;94327.72;4159094;28;20099;-47
2022/04/20 06:40:35;;;;;;;24.88;13.82;;;;;;;5.16;68.29;94320.91;4166675;28;20060;-50
2022/04/20 06:42:37;;;;;;;25.88;14.02;;;;;;;5.24;67.56;94321.88;4168380;28;20045;-51
2022/04/20 06:44:38;;;;;;;20.58;13.63;;;;;;;5.37;67.91;94326.81;4176201;28;20048;-50
2022/04/20 06:46:40;;;;;;;23.80;14.45;;;;;;;5.40;67.61;94323.94;4176773;28;20059;-50
2022/04/20 06:48:42;;;;;;;24.88;14.35;;;;;;;5.43;67.18;94328.03;4160825;28;20042;-53
2022/04/20 06:50:44;;;;;;;21.65;16.05;;;;;;;5.48;67.11;94338.84;4162279;28;20049;-49
2022/04/20 06:59:46;;;;;;;23.13;15.68;;;;;;;5.57;67.18;94313.81;4165058;28;20135;-51
2022/04/20 07:01:48;;;;;;;24.10;14.82;;;;;;;5.61;67.16;94317.78;4159173;28;20481;-53
2022/04/20 07:03:50;;;;;;;21.48;14.90;;;;;;;5.62;67.30;94315.03;4170874;28;20620;-51
2022/04/20 07:05:52;;;;;;;22.08;15.05;;;;;;;5.69;68.28;94304.91;4176368;28;20130;-48
2022/04/20 07:07:53;;;;;;;25.60;15.02;;;;;;;5.71;67.70;94310.78;4163235;28;20060;-48
2022/04/20 07:09:59;;;;;;;23.00;14.45;;;;;;;5.67;67.47;94297.25;4159760;28;20050;-49
2022/04/20 07:12:01;;;;;;;19.65;14.80;;;;;;;5.67;67.83;94314.63;4159844;28;20057;-53
2022/04/20 07:14:02;;;;;;;23.88;14.80;;;;;;;5.70;68.14;94325.56;4159389;28;20365;-47
2022/04/20 07:16:04;;;;;;;25.40;16.30;;;;;;;5.77;67.84;94332.81;4159664;28;20453;-50
2022/04/20 07:18:06;;;;;;;21.65;14.45;;;;;;;5.81;67.09;94332.41;4164556;28;20044;-58
2022/04/20 07:20:10;;;;;;;18.20;12.90;;;;;;;5.78;66.55;94332.66;4176122;28;20106;-53
2022/04/20 07:22:11;;;;;;;;;;;;;;;5.79;66.82;94338.69;4143756;28;20053;-59
2022/04/20 07:24:13;;;;;;;20.85;13.98;;;;;;;5.75;67.47;94340.75;4171115;28;19924;-53
2022/04/20 07:26:15;;;;;;;20.48;14.73;;;;;;;5.64;68.24;94344.31;4175134;28;20057;-52
2022/04/20 07:28:17;;;;;;;19.27;13.70;;;;;;;5.59;67.89;94336.09;4160861;28;20099;-54
2022/04/20 07:30:18;;;;;;;21.17;13.35;;;;;;;5.60;67.84;94327.34;4174019;28;20402;-55
2022/04/20 07:32:20;;;;;;;18.70;12.73;;;;;;;5.57;67.75;94326.78;4165480;28;20134;-56
2022/04/20 07:34:22;;;;;;;19.27;13.48;;;;;;;5.44;67.61;94332.28;4158616;28;20061;-56
2022/04/20 07:36:24;;;;;;;21.75;14.57;;;;;;;5.36;69.00;94334.75;4156698;28;20049;-53
2022/04/20 07:38:27;;;;;;;19.10;13.20;;;;;;;5.36;68.54;94334.75;4158106;28;20061;-55
2022/04/20 07:40:31;;;;;;;17.93;13.53;;;;;;;5.38;68.98;94322.41;4159574;28;20053;-50
2022/04/20 07:42:33;;;;;;;19.05;13.30;;;;;;;5.50;68.25;94319.53;4158023;28;20127;-56
2022/04/20 07:44:35;;;;;;;20.38;13.32;;;;;;;5.59;68.80;94322.28;4160444;28;20107;-53
2022/04/20 07:46:37;;;;;;;22.38;13.50;;;;;;;5.68;68.44;94326.69;4176041;28;20057;-53
2022/04/20 07:48:38;;;;;;;17.27;13.77;;;;;;;5.77;67.70;94330.22;4160799;28;20049;-52
2022/04/20 07:50:40;;;;;;;19.15;12.68;;;;;;;5.82;67.97;94326.22;4159012;28;20052;-52
2022/04/20 07:52:43;;;;;;;15.07;11.93;;;;;;;5.83;67.86;94324.44;4169261;28;20049;-52
2022/04/20 07:54:46;;;;;;;17.92;12.80;;;;;;;5.84;67.22;94329.50;4158585;28;20080;-51
2022/04/20 07:56:47;;;;;;;19.92;12.65;;;;;;;5.89;66.87;94318.69;4161922;28;20417;-56
2022/04/20 07:58:51;;;;;;;19.98;14.45;;;;;;;5.79;66.54;94320.50;4175920;28;20110;-57
2022/04/20 08:00:54;;;;;;;19.50;12.90;;;;;;;5.75;67.69;94331.16;4175657;28;20057;-57
2022/04/20 08:03:19;;;;;;;23.37;13.87;;;;;;;5.81;68.09;94313.38;4174063;28;20048;-57
2022/04/20 08:05:20;;;;;;;19.65;13.75;;;;;;;5.87;67.94;94313.66;4175331;28;20075;-61
2022/04/20 08:07:22;;;;;;;17.75;13.10;;;;;;;5.87;67.25;94312.81;4175444;28;20052;-57
2022/04/20 08:09:24;;;;;;;18.00;12.15;;;;;;;5.90;67.11;94305.56;4173927;28;20107;-59
2022/04/20 08:11:26;;;;;;;17.15;12.70;;;;;;;5.86;67.10;94309.41;4175314;28;20056;-61
2022/04/20 08:15:49;;;;;;;18.75;13.60;;;;;;;5.95;68.22;94307.75;4159141;28;20053;-56
2022/04/20 08:17:51;;;;;;;20.52;13.48;;;;;;;6.02;67.50;94306.22;4159016;28;20616;-57
2022/04/20 08:19:52;;;;;;;17.17;12.77;;;;;;;6.13;67.98;94305.25;4159150;28;20049;-57
2022/04/20 08:21:55;;;;;;;21.33;14.35;;;;;;;6.15;67.05;94293.75;4158892;28;20075;-56
2022/04/20 08:23:57;;;;;;;19.13;14.73;;;;;;;6.14;67.01;94301.69;4157610;28;20049;-59
2022/04/20 08:26:05;;;;;;;19.85;14.98;;;;;;;6.19;66.93;94285.66;4159203;28;20167;-57
2022/04/20 08:28:07;;;;;;;24.90;13.68;;;;;;;6.19;66.67;94283.06;4158485;28;20112;-55
2022/04/20 08:30:09;;;;;;;19.52;12.80;;;;;;;6.16;66.43;94281.56;4158739;28;20107;-54
2022/04/20 08:32:11;;;;;;;18.33;12.90;;;;;;;6.09;67.50;94283.13;4159165;28;20406;-55
2022/04/20 08:34:13;;;;;;;16.65;12.98;;;;;;;6.06;67.09;94292.00;4159635;28;20084;-53
2022/04/20 08:36:16;;;;;;;18.17;14.18;;;;;;;5.90;67.96;94289.16;4158515;28;20050;-56
2022/04/20 08:38:17;;;;;;;17.02;12.85;;;;;;;5.84;67.61;94281.91;4157122;28;20524;-50
2022/04/20 08:40:19;;;;;;;16.98;13.50;;;;;;;5.65;67.55;94277.56;4171680;28;20544;-52
2022/04/20 08:42:22;;;;;;;17.02;13.20;;;;;;;5.49;69.47;94272.94;4158523;28;20341;-55
2022/04/20 08:44:28;;;;;;;20.13;13.63;;;;;;;5.44;69.89;94264.72;4159060;28;20556;-58
2022/04/20 08:46:35;;;;;;;18.33;13.43;;;;;;;5.08;70.66;94267.09;4143158;28;20085;-55
2022/04/20 08:48:37;;;;;;;20.17;14.60;;;;;;;5.05;70.88;94262.16;4157257;28;20107;-51
2022/04/20 08:50:40;;;;;;;20.98;14.77;;;;;;;5.12;72.44;94256.28;4158640;28;20057;-58
2022/04/20 08:52:43;;;;;;;19.65;14.88;;;;;;;5.28;71.97;94257.50;4156806;28;20130;-57
2022/04/20 08:54:45;;;;;;;22.60;15.75;;;;;;;5.32;71.31;94251.88;4139015;28;20589;-62
2022/04/20 08:59:07;;;;;;;26.45;17.67;;;;;;;5.00;71.92;94251.34;4158357;28;20049;-58
2022/04/20 09:01:11;;;;;;;26.75;18.45;;;;;;;4.95;72.68;94259.56;4155762;28;20115;-56
2022/04/20 09:03:15;;;;;;;25.55;18.70;;;;;;;5.08;72.70;94257.50;4158793;28;20482;-55
2022/04/20 09:05:18;;;;;;;27.55;19.65;;;;;;;5.20;72.69;94249.56;4154959;28;20870;-59
2022/04/20 09:07:20;;;;;;;30.92;21.65;;;;;;;5.29;73.30;94259.97;4159327;28;20049;-49
2022/04/20 09:09:28;;;;;;;30.95;21.77;;;;;;;5.39;73.24;94246.97;4159742;28;20466;-55
2022/04/20 09:11:31;;;;;;;31.75;20.40;;;;;;;5.53;72.95;94237.94;4170348;28;20119;-55
2022/04/20 09:13:43;;;;;;;31.98;21.80;;;;;;;5.72;72.73;94240.50;4177018;28;20133;-52
2022/04/20 09:15:47;;;;;;;25.50;19.63;;;;;;;5.83;71.61;94231.69;4177567;28;20052;-51
2022/04/20 09:17:49;;;;;;;26.98;19.33;;;;;;;5.88;71.44;94226.06;4177815;28;20052;-57
2022/04/20 09:19:53;;;;;;;25.58;17.58;;;;;;;6.01;71.94;94224.00;4178982;28;20049;-58
2022/04/20 09:21:55;;;;;;;;;;;;;;;6.12;71.15;94226.41;4151052;28;20530;-55
2022/04/20 09:24:07;;;;;;;27.00;17.85;;;;;;;6.24;70.47;94218.41;4144251;28;20423;-56
2022/04/20 09:26:16;;;;;;;29.45;17.33;;;;;;;6.40;70.06;94210.00;4145738;28;20410;-54
2022/04/20 09:28:18;;;;;;;23.92;16.45;;;;;;;6.44;69.85;94212.16;4145865;28;20096;-55
2022/04/20 09:30:20;;;;;;;24.42;16.90;;;;;;;6.44;70.10;94217.38;4145677;28;20053;-53
2022/04/20 09:32:41;;;;;;;25.08;16.52;;;;;;;6.45;70.12;94219.00;4162073;28;20053;-53
2022/04/20 09:34:55;;;;;;;22.58;16.02;;;;;;;6.48;69.51;94226.53;4161526;28;20054;-56
2022/04/20 09:36:57;;;;;;;23.70;16.67;;;;;;;6.45;69.95;94221.59;4160421;28;20072;-56
2022/04/20 09:39:03;;;;;;;20.27;15.85;;;;;;;6.51;70.37;94205.41;4160860;28;20337;-55
2022/04/20 09:41:08;;;;;;;23.15;16.67;;;;;;;6.55;70.20;94209.34;4161963;28;20533;-54
2022/04/20 09:43:19;;;;;;;20.85;15.32;;;;;;;6.45;70.43;94200.78;4161966;28;20049;-59
2022/04/20 09:45:21;;;;;;;19.67;14.73;;;;;;;6.40;70.95;94200.41;4162330;28;20662;-53
2022/04/20 09:50:03;;;;;;;20.67;15.38;;;;;;;6.51;70.67;94201.97;4161663;28;20076;-54
2022/04/20 09:52:10;;;;;;;19.17;14.38;;;;;;;6.42;70.02;94195.88;4161992;28;20053;-59
2022/04/20 09:54:28;;;;;;;22.85;14.98;;;;;;;6.41;70.74;94189.03;4159212;28;20694;-54
2022/04/20 09:56:32;;;;;;;18.23;14.35;;;;;;;6.49;71.24;94196.09;4160326;28;20126;-56